Time;durP1;ratioP1;P1;durP2;ratioP2;P2;SDS_P1;SDS_P2;PMS_P1;PMS_P2;Temp;Humidity;BMP_temperature;BMP_pressure;BME280_temperature;BME280_humidity;BME280_pressure;Samples;Min_cycle;Max_cycle;Signal;HPM_P1;HPM_P2
2022/12/28 00:05:37;;;;;;;;;;;;;;;;;;6191328;22;19920;-90
2022/12/28 00:08:03;;;;;;;;;;;;;;;;;;6168905;23;19932;-90
2022/12/28 00:10:29;;;;;;;;;;;;;;;;;;6172012;23;20400;-90
2022/12/28 00:12:55;;;;;;;;;;;;;;;;;;6122100;23;19917;-90
2022/12/28 00:15:21;;;;;;;;;;;;;;;;;;6171749;23;19920;-90
2022/12/28 00:17:50;;;;;;;;;;;;;;;;;;6171873;23;19916;-90
2022/12/28 00:20:20;;;;;;;;;;;;;;;;;;6172686;23;19920;-90
2022/12/28 00:22:46;;;;;;;;;;;;;;;;;;6117908;23;20242;-91
2022/12/28 00:25:15;;;;;;;;;;;;;;;;;;6145118;23;19920;-91
2022/12/28 00:27:42;;;;;;;;;;;;;;;;;;6123928;23;19971;-89
2022/12/28 00:30:08;;;;;;;;;;;;;;;;;;6119629;23;20334;-91
2022/12/28 00:32:35;;;;;;;;;;;;;;;;;;6124747;23;20345;-90
2022/12/28 00:35:01;;;;;;;;;;;;;;;;;;6119507;23;19999;-91
2022/12/28 00:37:32;;;;;;;;;;;;;;;;;;6172467;23;19920;-90
2022/12/28 00:39:59;;;;;;;;;;;;;;;;;;6120474;23;19916;-90
2022/12/28 00:42:40;;;;;;;;;;;;;;;;;;6119210;23;20556;-92
2022/12/28 00:45:07;;;;;;;;;;;;;;;;;;6112853;23;19959;-90
2022/12/28 00:47:34;;;;;;;;;;;;;;;;;;6092090;23;19960;-90
2022/12/28 00:50:01;;;;;;;;;;;;;;;;;;6139748;23;19944;-90
2022/12/28 00:52:27;;;;;;;;;;;;;;;;;;6118480;23;19975;-90
2022/12/28 00:54:57;;;;;;;;;;;;;;;;;;6138131;23;19920;-91
2022/12/28 00:57:23;;;;;;;;;;;;;;;;;;6139910;23;19920;-90
2022/12/28 00:59:50;;;;;;;;;;;;;;;;;;6138535;23;19921;-89
2022/12/28 01:02:16;;;;;;;;;;;;;;;;;;6091759;23;19947;-90
2022/12/28 01:04:43;;;;;;;;;;;;;;;;;;6112997;23;19935;-90
2022/12/28 01:07:11;;;;;;;;;;;;;;;;;;6135649;23;19924;-89
2022/12/28 01:09:52;;;;;;;;;;;;;;;;;;6076599;23;19921;-89
2022/12/28 01:12:19;;;;;;;;;;;;;;;;;;6058210;23;20255;-90
2022/12/28 01:14:45;;;;;;;;;;;;;;;;;;6055847;23;19928;-90
2022/12/28 01:17:13;;;;;;;;;;;;;;;;;;6055395;23;19961;-90
2022/12/28 01:19:40;;;;;;;;;;;;;;;;;;6057655;23;19924;-91
2022/12/28 01:22:07;;;;;;;;;;;;;;;;;;6053582;23;20116;-89
2022/12/28 01:24:33;;;;;;;;;;;;;;;;;;6054444;23;19921;-90
2022/12/28 01:27:00;;;;;;;;;;;;;;;;;;6053064;23;20003;-90
2022/12/28 01:29:27;;;;;;;;;;;;;;;;;;6057576;23;19996;-89
2022/12/28 01:31:59;;;;;;;;;;;;;;;;;;6054330;23;20406;-89
2022/12/28 01:34:26;;;;;;;;;;;;;;;;;;6058811;23;20000;-89
2022/12/28 01:36:53;;;;;;;;;;;;;;;;;;6077506;23;19996;-90
2022/12/28 01:39:39;;;;;;;;;;;;;;;;;;6078033;23;20300;-89
2022/12/28 01:42:05;;;;;;;;;;;;;;;;;;6140735;23;20596;-90
2022/12/28 01:44:31;;;;;;;;;;;;;;;;;;6143666;23;19996;-90
2022/12/28 01:47:04;;;;;;;;;;;;;;;;;;6117788;23;19947;-89
2022/12/28 01:49:34;;;;;;;;;;;;;;;;;;6119007;23;19920;-89
2022/12/28 01:52:00;;;;;;;;;;;;;;;;;;6118073;23;19927;-89
2022/12/28 01:54:46;;;;;;;;;;;;;;;;;;6169269;23;20390;-90
2022/12/28 01:57:12;;;;;;;;;;;;;;;;;;6118971;23;19955;-90
2022/12/28 01:59:38;;;;;;;;;;;;;;;;;;6143859;23;19927;-90
2022/12/28 02:02:05;;;;;;;;;;;;;;;;;;6139265;23;19943;-90
2022/12/28 02:04:33;;;;;;;;;;;;;;;;;;6155799;23;20412;-91
2022/12/28 02:06:59;;;;;;;;;;;;;;;;;;6085247;23;20253;-89
2022/12/28 02:09:26;;;;;;;;;;;;;;;;;;6114262;23;19924;-90
2022/12/28 02:11:52;;;;;;;;;;;;;;;;;;6087968;23;20147;-90
2022/12/28 02:14:22;;;;;;;;;;;;;;;;;;6091365;23;19921;-90
2022/12/28 02:16:50;;;;;;;;;;;;;;;;;;6085791;23;19927;-90
2022/12/28 02:19:18;;;;;;;;;;;;;;;;;;6116023;23;20019;-90
2022/12/28 02:21:48;;;;;;;;;;;;;;;;;;6112969;23;19927;-90
2022/12/28 02:24:16;;;;;;;;;;;;;;;;;;6091510;23;19920;-89
2022/12/28 02:26:45;;;;;;;;;;;;;;;;;;6089856;23;19964;-89
2022/12/28 02:29:12;;;;;;;;;;;;;;;;;;6089771;23;19920;-89
2022/12/28 02:31:38;;;;;;;;;;;;;;;;;;6116516;23;19920;-89
2022/12/28 02:34:05;;;;;;;;;;;;;;;;;;6089885;23;19964;-90
2022/12/28 02:36:31;;;;;;;;;;;;;;;;;;6090979;23;19928;-89
2022/12/28 02:38:58;;;;;;;;;;;;;;;;;;6139062;23;19931;-90
2022/12/28 02:41:25;;;;;;;;;;;;;;;;;;6090943;23;19968;-89
2022/12/28 02:43:51;;;;;;;;;;;;;;;;;;6112442;23;19925;-90
2022/12/28 02:52:03;;;;;;;;;;;;;;;;;;6112804;23;19920;-90
2022/12/28 02:57:39;;;;;;;;;;;;;;;;;;6140277;23;19995;-90
2022/12/28 03:00:06;;;;;;;;;;;;;;;;;;6089172;23;20291;-90
2022/12/28 03:02:33;;;;;;;;;;;;;;;;;;6093013;23;20015;-90
2022/12/28 03:05:01;;;;;;;;;;;;;;;;;;6115756;23;19932;-90
2022/12/28 03:10:16;;;;;;;;;;;;;;;;;;6117580;23;20281;-91
2022/12/28 03:12:43;;;;;;;;;;;;;;;;;;6093654;23;19920;-91
2022/12/28 03:15:31;;;;;;;;;;;;;;;;;;6095377;23;20028;-90
2022/12/28 03:32:00;;;;;;;;;;;;;;;;;;6142346;23;19921;-91
2022/12/28 03:34:31;;;;;;;;;;;;;;;;;;6120640;23;19916;-91
2022/12/28 03:36:57;;;;;;;;;;;;;;;;;;6116625;23;20262;-91
2022/12/28 03:39:27;;;;;;;;;;;;;;;;;;6119242;23;19972;-91
2022/12/28 03:44:49;;;;;;;;;;;;;;;;;;6144779;23;19973;-92
2022/12/28 03:47:29;;;;;;;;;;;;;;;;;;6147925;23;19975;-92
2022/12/28 03:49:57;;;;;;;;;;;;;;;;;;6092692;23;19921;-92
2022/12/28 03:52:28;;;;;;;;;;;;;;;;;;6096617;23;19927;-92
2022/12/28 03:55:04;;;;;;;;;;;;;;;;;;6144515;23;20296;-91
2022/12/28 03:57:30;;;;;;;;;;;;;;;;;;6095668;23;20312;-92
2022/12/28 03:59:58;;;;;;;;;;;;;;;;;;6096265;23;19921;-92
2022/12/28 04:02:25;;;;;;;;;;;;;;;;;;6096291;23;19921;-91
2022/12/28 04:04:58;;;;;;;;;;;;;;;;;;6122144;23;19921;-91
2022/12/28 04:07:25;;;;;;;;;;;;;;;;;;6093777;23;19932;-90
2022/12/28 04:09:52;;;;;;;;;;;;;;;;;;6090983;23;19924;-91
2022/12/28 04:12:20;;;;;;;;;;;;;;;;;;6096008;23;19924;-91
2022/12/28 04:14:46;;;;;;;;;;;;;;;;;;6094541;23;19920;-91
2022/12/28 04:17:16;;;;;;;;;;;;;;;;;;6092323;23;19920;-90
2022/12/28 04:19:52;;;;;;;;;;;;;;;;;;6118452;23;20006;-91
2022/12/28 04:22:20;;;;;;;;;;;;;;;;;;6094388;23;19921;-91
2022/12/28 04:24:46;;;;;;;;;;;;;;;;;;6091491;23;20907;-91
2022/12/28 04:27:19;;;;;;;;;;;;;;;;;;6092260;23;19932;-91
2022/12/28 04:29:55;;;;;;;;;;;;;;;;;;6139124;23;19943;-91
2022/12/28 04:32:26;;;;;;;;;;;;;;;;;;6044280;23;19927;-90
2022/12/28 04:34:53;;;;;;;;;;;;;;;;;;6090546;23;19920;-91
2022/12/28 04:37:21;;;;;;;;;;;;;;;;;;6117893;23;19971;-92
2022/12/28 04:39:48;;;;;;;;;;;;;;;;;;6112252;23;19927;-90
2022/12/28 04:42:15;;;;;;;;;;;;;;;;;;6093920;23;19924;-91
2022/12/28 04:44:43;;;;;;;;;;;;;;;;;;6094052;23;19920;-90
2022/12/28 04:47:09;;;;;;;;;;;;;;;;;;6113615;23;20446;-91
2022/12/28 04:49:37;;;;;;;;;;;;;;;;;;6115851;23;19925;-91
2022/12/28 04:52:04;;;;;;;;;;;;;;;;;;6091230;23;20249;-92
2022/12/28 04:54:36;;;;;;;;;;;;;;;;;;6094274;23;19924;-91
2022/12/28 04:57:06;;;;;;;;;;;;;;;;;;6089608;23;19920;-90
2022/12/28 04:59:34;;;;;;;;;;;;;;;;;;6117198;23;20556;-91
2022/12/28 05:02:01;;;;;;;;;;;;;;;;;;6085738;23;19927;-90
2022/12/28 05:04:28;;;;;;;;;;;;;;;;;;6090695;23;19920;-91
2022/12/28 05:06:55;;;;;;;;;;;;;;;;;;6088580;23;19925;-90
2022/12/28 05:09:23;;;;;;;;;;;;;;;;;;6117040;23;20290;-90
2022/12/28 05:12:06;;;;;;;;;;;;;;;;;;6120231;23;20235;-91
2022/12/28 05:14:32;;;;;;;;;;;;;;;;;;6090538;23;19927;-91
2022/12/28 05:16:58;;;;;;;;;;;;;;;;;;6088553;23;19921;-90
2022/12/28 05:19:26;;;;;;;;;;;;;;;;;;6093886;23;19975;-90
2022/12/28 05:21:52;;;;;;;;;;;;;;;;;;6091544;23;20208;-91
2022/12/28 05:24:19;;;;;;;;;;;;;;;;;;6091729;23;19917;-91
2022/12/28 05:26:57;;;;;;;;;;;;;;;;;;6115599;23;19921;-90
2022/12/28 05:29:23;;;;;;;;;;;;;;;;;;6079067;23;19981;-91
2022/12/28 05:31:51;;;;;;;;;;;;;;;;;;6052950;23;19921;-90
2022/12/28 05:34:17;;;;;;;;;;;;;;;;;;6033245;23;19917;-91
2022/12/28 05:36:44;;;;;;;;;;;;;;;;;;6055682;23;19924;-90
2022/12/28 05:39:18;;;;;;;;;;;;;;;;;;6044752;23;19929;-91
2022/12/28 05:41:47;;;;;;;;;;;;;;;;;;6053782;23;19943;-91
2022/12/28 05:44:14;;;;;;;;;;;;;;;;;;6057423;23;19928;-90
2022/12/28 05:46:40;;;;;;;;;;;;;;;;;;6056302;23;19925;-91
2022/12/28 05:49:06;;;;;;;;;;;;;;;;;;6030186;23;20386;-91
2022/12/28 05:51:41;;;;;;;;;;;;;;;;;;6080823;23;19921;-90
2022/12/28 05:54:09;;;;;;;;;;;;;;;;;;6055041;23;19956;-90
2022/12/28 05:56:36;;;;;;;;;;;;;;;;;;6031898;23;19932;-92
2022/12/28 05:59:03;;;;;;;;;;;;;;;;;;6055351;23;20469;-91
2022/12/28 06:01:30;;;;;;;;;;;;;;;;;;6113942;23;19935;-91
2022/12/28 06:03:57;;;;;;;;;;;;;;;;;;6114212;23;19917;-91
2022/12/28 06:06:24;;;;;;;;;;;;;;;;;;6120569;23;19989;-92
2022/12/28 06:08:52;;;;;;;;;;;;;;;;;;6191621;23;19924;-91
2022/12/28 06:11:19;;;;;;;;;;;;;;;;;;6196290;23;19928;-90
2022/12/28 06:13:46;;;;;;;;;;;;;;;;;;6195969;23;19969;-90
2022/12/28 06:16:13;;;;;;;;;;;;;;;;;;6144538;23;20531;-90
2022/12/28 06:18:40;;;;;;;;;;;;;;;;;;6142018;23;20007;-89
2022/12/28 06:21:07;;;;;;;;;;;;;;;;;;6167203;23;20185;-91
2022/12/28 06:23:33;;;;;;;;;;;;;;;;;;6194713;23;19947;-91
2022/12/28 06:25:59;;;;;;;;;;;;;;;;;;6193251;23;20428;-92
2022/12/28 06:28:26;;;;;;;;;;;;;;;;;;6169960;23;20203;-89
2022/12/28 06:30:54;;;;;;;;;;;;;;;;;;6143072;23;19967;-91
2022/12/28 06:33:21;;;;;;;;;;;;;;;;;;6194292;23;19986;-90
2022/12/28 06:35:47;;;;;;;;;;;;;;;;;;6194094;23;20007;-90
2022/12/28 06:38:14;;;;;;;;;;;;;;;;;;6195049;23;19951;-91
2022/12/28 06:40:55;;;;;;;;;;;;;;;;;;6167956;23;19920;-91
2022/12/28 06:43:22;;;;;;;;;;;;;;;;;;6196275;23;19952;-90
2022/12/28 06:45:49;;;;;;;;;;;;;;;;;;6193242;23;20345;-91
2022/12/28 06:48:34;;;;;;;;;;;;;;;;;;6170105;23;20340;-91
2022/12/28 06:51:01;;;;;;;;;;;;;;;;;;6141642;23;20413;-92
2022/12/28 06:53:27;;;;;;;;;;;;;;;;;;6148657;23;19995;-91
2022/12/28 06:55:54;;;;;;;;;;;;;;;;;;6144279;23;19960;-91
2022/12/28 06:58:22;;;;;;;;;;;;;;;;;;6146034;23;20424;-90
2022/12/28 07:00:58;;;;;;;;;;;;;;;;;;6170051;23;19928;-90
2022/12/28 07:03:25;;;;;;;;;;;;;;;;;;6197618;23;19994;-90
2022/12/28 07:05:52;;;;;;;;;;;;;;;;;;6192229;23;19925;-91
2022/12/28 07:08:38;;;;;;;;;;;;;;;;;;6169214;23;19927;-91
2022/12/28 07:11:05;;;;;;;;;;;;;;;;;;6189590;23;20004;-90
2022/12/28 07:13:34;;;;;;;;;;;;;;;;;;6166957;23;19924;-91
2022/12/28 07:16:15;;;;;;;;;;;;;;;;;;6114813;23;20386;-90
2022/12/28 07:18:42;;;;;;;;;;;;;;;;;;6111818;23;19956;-90
2022/12/28 07:21:09;;;;;;;;;;;;;;;;;;6084982;23;20003;-90
2022/12/28 07:23:51;;;;;;;;;;;;;;;;;;6113040;23;19996;-91
2022/12/28 07:26:19;;;;;;;;;;;;;;;;;;6088892;23;19920;-91
2022/12/28 07:28:49;;;;;;;;;;;;;;;;;;6137886;23;20145;-92
2022/12/28 07:31:16;;;;;;;;;;;;;;;;;;6111989;23;19920;-90
2022/12/28 07:33:42;;;;;;;;;;;;;;;;;;6112277;23;19921;-90
2022/12/28 07:36:09;;;;;;;;;;;;;;;;;;6111082;23;19921;-90
2022/12/28 07:38:36;;;;;;;;;;;;;;;;;;6112822;23;19931;-90
2022/12/28 07:41:02;;;;;;;;;;;;;;;;;;6086489;23;19924;-91
2022/12/28 07:43:29;;;;;;;;;;;;;;;;;;6110614;23;19965;-90
2022/12/28 07:45:56;;;;;;;;;;;;;;;;;;6137258;23;20376;-90
2022/12/28 07:48:22;;;;;;;;;;;;;;;;;;6142742;23;19924;-89
2022/12/28 07:50:50;;;;;;;;;;;;;;;;;;6142705;23;19972;-90
2022/12/28 07:53:17;;;;;;;;;;;;;;;;;;6146620;23;19927;-90
2022/12/28 07:55:47;;;;;;;;;;;;;;;;;;6195002;23;19947;-91
2022/12/28 07:58:15;;;;;;;;;;;;;;;;;;6168135;23;19955;-89
2022/12/28 08:00:41;;;;;;;;;;;;;;;;;;6192298;23;19931;-89
2022/12/28 08:03:07;;;;;;;;;;;;;;;;;;6142892;23;20417;-90
2022/12/28 08:05:34;;;;;;;;;;;;;;;;;;6141355;23;19944;-90
2022/12/28 08:08:09;;;;;;;;;;;;;;;;;;6062753;23;19931;-90
2022/12/28 08:10:36;;;;;;;;;;;;;;;;;;6090457;23;19936;-89
2022/12/28 08:13:03;;;;;;;;;;;;;;;;;;6110480;23;20335;-90
2022/12/28 08:15:29;;;;;;;;;;;;;;;;;;6088456;23;19924;-89
2022/12/28 08:17:57;;;;;;;;;;;;;;;;;;6108274;23;19916;-89
2022/12/28 08:20:22;;;;;;;;;;;;;;;;;;6090702;23;19932;-90
2022/12/28 08:22:49;;;;;;;;;;;;;;;;;;6135351;23;19935;-91
2022/12/28 08:25:27;;;;;;;;;;;;;;;;;;6090852;23;19936;-89
2022/12/28 08:28:03;;;;;;;;;;;;;;;;;;6136275;23;20395;-90
2022/12/28 08:30:44;;;;;;;;;;;;;;;;;;6078677;23;19921;-90
2022/12/28 08:33:11;;;;;;;;;;;;;;;;;;6053338;23;20258;-90
2022/12/28 08:35:38;;;;;;;;;;;;;;;;;;6030771;23;19921;-89
2022/12/28 08:38:05;;;;;;;;;;;;;;;;;;6050807;23;19924;-89
2022/12/28 08:40:32;;;;;;;;;;;;;;;;;;6054507;23;19925;-90
2022/12/28 08:43:00;;;;;;;;;;;;;;;;;;6073649;23;19949;-90
2022/12/28 08:45:27;;;;;;;;;;;;;;;;;;6053976;23;19921;-90
2022/12/28 08:47:53;;;;;;;;;;;;;;;;;;6075462;23;19932;-90
2022/12/28 08:50:19;;;;;;;;;;;;;;;;;;6053941;23;19972;-91
2022/12/28 08:52:55;;;;;;;;;;;;;;;;;;6029455;23;19928;-90
2022/12/28 08:55:22;;;;;;;;;;;;;;;;;;6081052;23;20439;-91
2022/12/28 08:57:48;;;;;;;;;;;;;;;;;;6028213;23;20358;-91
2022/12/28 09:00:15;;;;;;;;;;;;;;;;;;6055610;23;19921;-91
2022/12/28 09:02:41;;;;;;;;;;;;;;;;;;6079524;23;19944;-91
2022/12/28 09:05:08;;;;;;;;;;;;;;;;;;6084603;23;19920;-91
2022/12/28 09:07:35;;;;;;;;;;;;;;;;;;6138813;23;19931;-91
2022/12/28 09:10:02;;;;;;;;;;;;;;;;;;6140150;23;19970;-91
2022/12/28 09:12:28;;;;;;;;;;;;;;;;;;6193133;23;19973;-91
2022/12/28 09:14:55;;;;;;;;;;;;;;;;;;6138936;23;19955;-92
2022/12/28 09:17:21;;;;;;;;;;;;;;;;;;6140276;23;20226;-92
2022/12/28 09:20:02;;;;;;;;;;;;;;;;;;6127229;23;20645;-90
2022/12/28 09:22:29;;;;;;;;;;;;;;;;;;6111518;23;20352;-91
2022/12/28 09:24:54;;;;;;;;;;;;;;;;;;6084578;23;19921;-90
2022/12/28 09:27:28;;;;;;;;;;;;;;;;;;6082480;23;20393;-90
2022/12/28 09:29:57;;;;;;;;;;;;;;;;;;6058273;23;19971;-90
2022/12/28 09:32:24;;;;;;;;;;;;;;;;;;6085977;23;19923;-90
2022/12/28 09:34:51;;;;;;;;;;;;;;;;;;6083935;23;19939;-90
2022/12/28 09:37:17;;;;;;;;;;;;;;;;;;6109911;23;19920;-90
2022/12/28 09:39:48;;;;;;;;;;;;;;;;;;6083521;23;19920;-90
2022/12/28 09:42:27;;;;;;;;;;;;;;;;;;6088918;23;19921;-91
2022/12/28 09:44:55;;;;;;;;;;;;;;;;;;6080591;23;20010;-90
2022/12/28 09:47:37;;;;;;;;;;;;;;;;;;6112713;23;19928;-90
2022/12/28 09:50:05;;;;;;;;;;;;;;;;;;6109819;23;19924;-91
2022/12/28 09:52:37;;;;;;;;;;;;;;;;;;6191044;23;19959;-91
2022/12/28 09:55:04;;;;;;;;;;;;;;;;;;6166994;23;19920;-90
2022/12/28 09:57:31;;;;;;;;;;;;;;;;;;6143414;23;19927;-91
2022/12/28 09:59:58;;;;;;;;;;;;;;;;;;6139371;23;19991;-90
2022/12/28 10:02:25;;;;;;;;;;;;;;;;;;6191924;23;19917;-89
2022/12/28 10:04:53;;;;;;;;;;;;;;;;;;6186046;23;19948;-90
2022/12/28 10:07:19;;;;;;;;;;;;;;;;;;6101013;23;20220;-89
2022/12/28 10:09:48;;;;;;;;;;;;;;;;;;6084632;23;20318;-89
2022/12/28 10:12:15;;;;;;;;;;;;;;;;;;6112410;23;19927;-90
2022/12/28 10:14:41;;;;;;;;;;;;;;;;;;6113170;23;19925;-89
2022/12/28 10:17:09;;;;;;;;;;;;;;;;;;6110225;23;19920;-90
2022/12/28 10:19:36;;;;;;;;;;;;;;;;;;6113718;23;20397;-89
2022/12/28 10:22:04;;;;;;;;;;;;;;;;;;6110350;23;19920;-90
2022/12/28 10:24:31;;;;;;;;;;;;;;;;;;6112735;23;19921;-90
2022/12/28 10:27:06;;;;;;;;;;;;;;;;;;6135989;23;19932;-90
2022/12/28 10:29:32;;;;;;;;;;;;;;;;;;6109413;23;20325;-90
2022/12/28 10:31:58;;;;;;;;;;;;;;;;;;6108966;23;19999;-89
2022/12/28 10:34:26;;;;;;;;;;;;;;;;;;6114594;23;19925;-90
2022/12/28 10:36:53;;;;;;;;;;;;;;;;;;6110287;23;20621;-90
2022/12/28 10:39:20;;;;;;;;;;;;;;;;;;6112608;23;20302;-90
2022/12/28 10:41:46;;;;;;;;;;;;;;;;;;6087651;23;19920;-90
2022/12/28 10:44:14;;;;;;;;;;;;;;;;;;6112249;23;19992;-90
2022/12/28 10:46:55;;;;;;;;;;;;;;;;;;6074152;23;19925;-90
2022/12/28 10:49:22;;;;;;;;;;;;;;;;;;6079622;23;20365;-91
2022/12/28 10:51:50;;;;;;;;;;;;;;;;;;6053650;23;19921;-90
2022/12/28 10:54:20;;;;;;;;;;;;;;;;;;6078220;23;19921;-90
2022/12/28 10:56:56;;;;;;;;;;;;;;;;;;6073882;23;20398;-90
2022/12/28 10:59:24;;;;;;;;;;;;;;;;;;6078256;23;19948;-90
2022/12/28 11:01:52;;;;;;;;;;;;;;;;;;6051782;23;19992;-90
2022/12/28 11:04:18;;;;;;;;;;;;;;;;;;6054382;23;20422;-90
2022/12/28 11:06:45;;;;;;;;;;;;;;;;;;6083422;23;19999;-91
2022/12/28 11:09:12;;;;;;;;;;;;;;;;;;6110344;23;20015;-90
2022/12/28 11:11:39;;;;;;;;;;;;;;;;;;6137092;23;19920;-90
2022/12/28 11:14:05;;;;;;;;;;;;;;;;;;6134315;23;20140;-91
2022/12/28 11:16:33;;;;;;;;;;;;;;;;;;6138229;23;19925;-91
2022/12/28 11:18:59;;;;;;;;;;;;;;;;;;6165259;23;19920;-91
2022/12/28 11:21:26;;;;;;;;;;;;;;;;;;6170155;23;19966;-91
2022/12/28 11:23:52;;;;;;;;;;;;;;;;;;6142396;23;20231;-91
2022/12/28 11:26:20;;;;;;;;;;;;;;;;;;6167418;23;20337;-91
2022/12/28 11:28:48;;;;;;;;;;;;;;;;;;6143129;23;19923;-91
2022/12/28 11:31:15;;;;;;;;;;;;;;;;;;6142199;23;19928;-91
2022/12/28 11:33:42;;;;;;;;;;;;;;;;;;6143348;23;19974;-91
2022/12/28 11:36:08;;;;;;;;;;;;;;;;;;6140776;23;19920;-90
2022/12/28 11:38:33;;;;;;;;;;;;;;;;;;6141230;23;19923;-90
2022/12/28 11:41:02;;;;;;;;;;;;;;;;;;6167393;23;19927;-91
2022/12/28 11:43:29;;;;;;;;;;;;;;;;;;6192086;23;19920;-92
2022/12/28 11:45:55;;;;;;;;;;;;;;;;;;6138842;23;19927;-92
2022/12/28 11:48:23;;;;;;;;;;;;;;;;;;6143780;23;19924;-91
2022/12/28 11:50:50;;;;;;;;;;;;;;;;;;6142983;23;19974;-91
2022/12/28 11:53:17;;;;;;;;;;;;;;;;;;6146684;23;19924;-91
2022/12/28 11:55:43;;;;;;;;;;;;;;;;;;6144571;23;19970;-92
2022/12/28 11:58:10;;;;;;;;;;;;;;;;;;6168936;23;19920;-91
2022/12/28 12:00:37;;;;;;;;;;;;;;;;;;6195790;23;20242;-90
2022/12/28 12:03:18;;;;;;;;;;;;;;;;;;6171056;23;19943;-90
2022/12/28 12:05:44;;;;;;;;;;;;;;;;;;6193995;23;19920;-90
2022/12/28 12:08:20;;;;;;;;;;;;;;;;;;6140552;23;19975;-91
2022/12/28 12:10:46;;;;;;;;;;;;;;;;;;6090181;23;19971;-90
2022/12/28 12:13:14;;;;;;;;;;;;;;;;;;6107332;23;19924;-90
2022/12/28 12:15:41;;;;;;;;;;;;;;;;;;6114366;23;19920;-91
2022/12/28 12:18:08;;;;;;;;;;;;;;;;;;6110279;23;19959;-90
2022/12/28 12:20:35;;;;;;;;;;;;;;;;;;6091438;23;19916;-90
2022/12/28 12:23:01;;;;;;;;;;;;;;;;;;6089707;23;20247;-90
2022/12/28 12:25:28;;;;;;;;;;;;;;;;;;6118629;23;19923;-90
2022/12/28 12:27:56;;;;;;;;;;;;;;;;;;6114001;23;19920;-89
2022/12/28 12:30:23;;;;;;;;;;;;;;;;;;6094565;23;19991;-90
2022/12/28 12:32:50;;;;;;;;;;;;;;;;;;6114308;23;19921;-90
2022/12/28 12:35:17;;;;;;;;;;;;;;;;;;6115806;23;20456;-91
2022/12/28 12:37:47;;;;;;;;;;;;;;;;;;6136920;23;19963;-91
2022/12/28 12:40:15;;;;;;;;;;;;;;;;;;6114161;23;19927;-91
2022/12/28 12:42:44;;;;;;;;;;;;;;;;;;6114548;23;20653;-91
2022/12/28 12:45:11;;;;;;;;;;;;;;;;;;6110411;23;19920;-91
2022/12/28 12:47:38;;;;;;;;;;;;;;;;;;6092232;23;19921;-90
2022/12/28 12:50:05;;;;;;;;;;;;;;;;;;6091365;23;20596;-91
2022/12/28 12:52:33;;;;;;;;;;;;;;;;;;6115725;23;19920;-90
2022/12/28 12:55:00;;;;;;;;;;;;;;;;;;6112825;23;20250;-91
2022/12/28 12:57:27;;;;;;;;;;;;;;;;;;6088901;23;19926;-91
2022/12/28 12:59:55;;;;;;;;;;;;;;;;;;6107972;23;19921;-91
2022/12/28 13:02:20;;;;;;;;;;;;;;;;;;6110910;23;19948;-91
2022/12/28 13:04:47;;;;;;;;;;;;;;;;;;6087304;23;19928;-92
2022/12/28 13:07:19;;;;;;;;;;;;;;;;;;6151905;23;19975;-91
2022/12/28 13:09:48;;;;;;;;;;;;;;;;;;6144515;23;19923;-91
2022/12/28 13:12:16;;;;;;;;;;;;;;;;;;6168814;23;19955;-91
2022/12/28 13:14:44;;;;;;;;;;;;;;;;;;6144408;23;20205;-91
2022/12/28 13:17:29;;;;;;;;;;;;;;;;;;6170019;23;19920;-91
2022/12/28 13:19:56;;;;;;;;;;;;;;;;;;6164476;23;19927;-91
2022/12/28 13:22:28;;;;;;;;;;;;;;;;;;6139889;23;19920;-91
2022/12/28 13:24:54;;;;;;;;;;;;;;;;;;6143749;23;19920;-91
2022/12/28 13:27:20;;;;;;;;;;;;;;;;;;6145402;23;19924;-93
2022/12/28 13:29:46;;;;;;;;;;;;;;;;;;6146515;23;19920;-92
2022/12/28 13:32:13;;;;;;;;;;;;;;;;;;6144023;23;19920;-92
2022/12/28 13:34:39;;;;;;;;;;;;;;;;;;6196077;23;19927;-91
2022/12/28 13:37:16;;;;;;;;;;;;;;;;;;6168518;23;20523;-91
2022/12/28 13:39:43;;;;;;;;;;;;;;;;;;6143897;23;20231;-92
2022/12/28 13:42:10;;;;;;;;;;;;;;;;;;6166523;23;19920;-91
2022/12/28 13:44:36;;;;;;;;;;;;;;;;;;6140771;23;20258;-92
2022/12/28 13:47:04;;;;;;;;;;;;;;;;;;6138242;23;19924;-92
2022/12/28 13:49:30;;;;;;;;;;;;;;;;;;6189995;23;19995;-91
2022/12/28 13:51:57;;;;;;;;;;;;;;;;;;6187862;23;19920;-91
2022/12/28 13:54:24;;;;;;;;;;;;;;;;;;6163843;23;19947;-92
2022/12/28 13:56:52;;;;;;;;;;;;;;;;;;6162390;23;19924;-92
2022/12/28 13:59:18;;;;;;;;;;;;;;;;;;6190986;23;20598;-91
2022/12/28 14:01:52;;;;;;;;;;;;;;;;;;6164488;23;19928;-90
2022/12/28 14:04:28;;;;;;;;;;;;;;;;;;6189871;23;20254;-90
2022/12/28 14:07:13;;;;;;;;;;;;;;;;;;6131609;23;20467;-91
2022/12/28 14:09:40;;;;;;;;;;;;;;;;;;6111176;23;19920;-92
2022/12/28 14:12:07;;;;;;;;;;;;;;;;;;6080476;23;20421;-91
2022/12/28 14:14:49;;;;;;;;;;;;;;;;;;6113375;23;19923;-91
2022/12/28 14:17:18;;;;;;;;;;;;;;;;;;6088838;23;19916;-91
2022/12/28 14:19:54;;;;;;;;;;;;;;;;;;6110101;23;20007;-90
2022/12/28 14:22:20;;;;;;;;;;;;;;;;;;6083791;23;20355;-91
2022/12/28 14:24:49;;;;;;;;;;;;;;;;;;6106165;23;19995;-91
2022/12/28 23:57:57;;;;;;;;;;;;;;;;;;6170026;23;20338;-89
